createdAt,value
2023-04-13T06:04:19.436Z,6.90
2023-04-13T06:06:47.510Z,6.90
2023-04-13T06:09:15.794Z,7.00
2023-04-13T06:11:43.598Z,7.10
2023-04-13T06:14:11.190Z,7.10
2023-04-13T06:16:38.751Z,7.20
2023-04-13T06:19:06.215Z,7.30
2023-04-13T06:21:33.705Z,7.40
2023-04-13T06:24:01.253Z,7.50
2023-04-13T06:26:29.338Z,7.50
2023-04-13T06:28:57.905Z,7.60
2023-04-13T06:31:28.019Z,7.60
2023-04-13T06:33:56.172Z,7.60
2023-04-13T06:36:24.108Z,7.70
2023-04-13T06:38:52.200Z,7.70
2023-04-13T06:41:19.755Z,7.70
2023-04-13T06:43:47.949Z,7.70
2023-04-13T06:46:15.921Z,7.70
2023-04-13T06:48:44.622Z,7.80
2023-04-13T06:51:12.778Z,7.90
2023-04-13T06:53:40.278Z,7.90
2023-04-13T06:56:08.661Z,8.00
2023-04-13T06:58:36.801Z,8.10
2023-04-13T07:01:04.927Z,8.10
2023-04-13T07:03:32.673Z,8.10
2023-04-13T07:06:00.191Z,8.10
2023-04-13T07:08:28.379Z,8.10
2023-04-13T07:10:58.126Z,8.20
2023-04-13T07:13:27.175Z,8.00
2023-04-13T07:15:54.686Z,8.10
2023-04-13T07:18:22.147Z,8.10
2023-04-13T07:20:49.640Z,8.20
2023-04-13T07:23:17.214Z,8.20
2023-04-13T07:25:44.817Z,8.20
2023-04-13T07:28:12.344Z,8.30
2023-04-13T07:30:45.475Z,8.30
2023-04-13T07:33:13.393Z,8.40
2023-04-13T07:35:41.395Z,8.40
2023-04-13T07:38:08.921Z,8.60
2023-04-13T07:40:36.753Z,8.60
2023-04-13T07:43:04.286Z,8.60
2023-04-13T07:45:32.044Z,8.70
2023-04-13T07:47:59.570Z,8.80
2023-04-13T07:50:27.612Z,8.70
2023-04-13T07:52:55.594Z,8.80
2023-04-13T07:55:23.228Z,8.90
2023-04-13T07:57:51.612Z,8.90
2023-04-13T08:00:21.198Z,8.90
2023-04-13T08:02:48.916Z,8.80
2023-04-13T08:05:16.954Z,8.70
2023-04-13T08:07:46.694Z,8.70
2023-04-13T08:10:15.362Z,8.60
2023-04-13T08:12:42.848Z,8.70
2023-04-13T08:15:10.800Z,8.70
2023-04-13T08:17:38.664Z,8.60
2023-04-13T08:20:08.386Z,8.60
2023-04-13T08:22:36.912Z,8.80
2023-04-13T08:25:07.235Z,8.90
2023-04-13T08:27:34.733Z,8.90
2023-04-13T08:30:03.260Z,9.10
2023-04-13T08:32:30.788Z,9.20
2023-04-13T08:34:58.408Z,9.30
2023-04-13T08:37:28.553Z,9.30
2023-04-13T08:39:59.722Z,9.50
2023-04-13T08:42:31.274Z,9.50
2023-04-13T08:45:02.103Z,9.50
2023-04-13T08:47:29.880Z,9.40
2023-04-13T08:50:02.826Z,9.40
2023-04-13T08:52:30.500Z,9.40
2023-04-13T08:54:59.424Z,9.20
2023-04-13T08:57:28.005Z,9.20
2023-04-13T08:59:59.031Z,9.00
2023-04-13T09:02:36.622Z,9.10
2023-04-13T09:05:16.669Z,9.30
2023-04-13T09:07:57.546Z,9.40
2023-04-13T09:10:27.003Z,9.60
2023-04-13T09:12:54.637Z,9.70
2023-04-13T09:15:23.023Z,9.80
2023-04-13T09:17:50.733Z,9.90
2023-04-13T09:20:23.813Z,9.90
2023-04-13T09:22:52.181Z,9.90
2023-04-13T09:25:28.560Z,10.00
2023-04-13T09:27:57.478Z,9.90
2023-04-13T09:30:27.470Z,9.90
2023-04-13T09:33:10.728Z,10.10
2023-04-13T09:35:38.689Z,10.20
2023-04-13T09:38:07.483Z,10.20
2023-04-13T09:40:38.442Z,10.30
2023-04-13T09:43:08.240Z,10.30
2023-04-13T09:45:46.490Z,10.00
2023-04-13T09:48:22.765Z,9.80
2023-04-13T09:51:07.218Z,9.80
2023-04-13T09:53:50.139Z,9.80
2023-04-13T09:56:17.907Z,9.60
2023-04-13T09:58:50.474Z,9.40
2023-04-13T10:01:18.506Z,9.40
2023-04-13T10:03:46.176Z,9.50
2023-04-13T10:06:14.481Z,9.70
2023-04-13T10:08:42.904Z,9.80
2023-04-13T10:11:15.409Z,9.60
2023-04-13T10:13:59.016Z,9.60
2023-04-13T10:17:07.696Z,9.70
2023-04-13T10:19:51.723Z,9.60
2023-04-13T10:22:22.946Z,9.70
2023-04-13T10:24:53.131Z,9.70
2023-04-13T10:27:23.652Z,10.00
2023-04-13T10:29:51.214Z,10.10
2023-04-13T10:32:28.987Z,10.20
2023-04-13T10:34:56.999Z,10.10
2023-04-13T10:37:28.893Z,9.90
2023-04-13T10:40:10.489Z,10.10
2023-04-13T10:42:53.243Z,10.30
2023-04-13T10:45:27.749Z,10.60
2023-04-13T10:47:58.714Z,10.80
2023-04-13T10:50:27.805Z,11.00
2023-04-13T10:53:07.811Z,11.20
2023-04-13T10:55:36.749Z,11.30
2023-04-13T10:58:17.468Z,11.50
2023-04-13T11:00:47.214Z,11.60
2023-04-13T11:03:16.790Z,11.70
2023-04-13T11:05:57.820Z,11.90
2023-04-13T11:08:26.715Z,12.00
2023-04-13T11:10:58.044Z,11.90
2023-04-13T11:13:26.813Z,11.80
2023-04-13T11:16:06.214Z,11.90
2023-04-13T11:18:33.947Z,12.10
2023-04-13T11:21:06.095Z,12.20
2023-04-13T11:23:36.363Z,12.20
2023-04-13T11:26:04.964Z,12.10
2023-04-13T11:28:47.156Z,11.80
2023-04-13T11:31:14.571Z,11.80
2023-04-13T11:33:44.574Z,11.90
2023-04-13T11:36:12.216Z,12.10
2023-04-13T11:38:42.296Z,12.30
2023-04-13T11:43:42.138Z,12.80
2023-04-13T11:46:13.764Z,12.90
2023-04-13T11:48:41.615Z,13.00
2023-04-13T11:51:11.542Z,13.10
2023-04-13T11:53:40.840Z,12.90
2023-04-13T11:56:09.147Z,13.00
2023-04-13T11:58:39.228Z,12.90
2023-04-13T12:01:14.496Z,12.90
2023-04-13T12:03:59.206Z,13.00
2023-04-13T12:06:41.120Z,12.90
2023-04-13T12:09:13.505Z,12.10
2023-04-13T12:11:49.785Z,11.90
2023-04-13T12:19:27.281Z,10.60
2023-04-13T12:21:57.596Z,10.50
2023-04-13T12:24:38.425Z,10.50
2023-04-13T12:29:43.049Z,10.30
2023-04-13T12:32:17.486Z,10.30
2023-04-13T12:34:45.091Z,10.40
2023-04-13T12:37:12.631Z,10.30
2023-04-13T12:39:41.742Z,10.30
2023-04-13T12:42:09.196Z,10.50
2023-04-13T12:44:36.864Z,10.60
2023-04-13T12:47:06.233Z,10.60
2023-04-13T12:49:33.793Z,10.70
2023-04-13T12:52:01.250Z,10.80
2023-04-13T12:54:30.877Z,11.00
2023-04-13T12:56:59.812Z,11.10
2023-04-13T12:59:27.263Z,11.10
2023-04-13T13:01:55.073Z,11.30
2023-04-13T13:04:22.647Z,11.40
2023-04-13T13:06:50.128Z,11.40
2023-04-13T13:09:17.906Z,11.70
2023-04-13T13:11:45.433Z,11.90
2023-04-13T13:14:12.865Z,12.00
2023-04-13T13:16:41.240Z,12.10
2023-04-13T13:19:08.747Z,12.40
2023-04-13T13:21:36.326Z,12.40
2023-04-13T13:24:06.827Z,12.40
2023-04-13T13:26:47.062Z,12.40
2023-04-13T13:29:24.145Z,12.80
2023-04-13T13:31:52.681Z,13.30
2023-04-13T13:34:20.693Z,13.70
2023-04-13T13:36:48.159Z,13.80
2023-04-13T13:39:18.588Z,13.60
2023-04-13T13:41:46.054Z,13.30
2023-04-13T13:44:13.535Z,13.10
2023-04-13T13:46:41.373Z,13.00
2023-04-13T13:49:08.888Z,13.30
2023-04-13T13:51:36.391Z,13.40
2023-04-13T13:54:03.982Z,13.50
2023-04-13T13:56:31.387Z,13.60
2023-04-13T13:58:59.398Z,13.30
2023-04-13T14:01:27.621Z,13.00
2023-04-13T14:03:55.474Z,13.00
2023-04-13T14:06:23.018Z,13.10
2023-04-13T14:08:50.454Z,12.90
2023-04-13T14:11:17.913Z,13.00
2023-04-13T14:13:45.639Z,12.80
2023-04-13T14:16:13.126Z,12.50
2023-04-13T14:18:40.988Z,12.40
2023-04-13T14:21:09.219Z,12.60
2023-04-13T14:23:37.677Z,12.70
2023-04-13T14:26:05.817Z,12.70
2023-04-13T14:28:33.648Z,12.70
2023-04-13T14:31:01.143Z,12.80
2023-04-13T14:33:28.691Z,12.80
2023-04-13T14:35:56.151Z,12.90
2023-04-13T14:38:23.860Z,12.90
2023-04-13T14:40:52.332Z,12.90
2023-04-13T14:43:19.770Z,12.90
2023-04-13T14:45:47.211Z,13.00
2023-04-13T14:48:15.520Z,13.10
2023-04-13T14:50:43.019Z,13.20
2023-04-13T14:53:10.550Z,13.20
2023-04-13T14:55:38.422Z,13.30
2023-04-13T14:58:05.843Z,13.40
2023-04-13T15:00:39.502Z,13.50
2023-04-13T15:03:13.152Z,13.60
2023-04-13T15:05:45.545Z,13.70
2023-04-13T15:08:15.854Z,13.40
2023-04-13T15:10:43.532Z,13.50
2023-04-13T15:13:11.894Z,13.40
2023-04-13T15:15:40.639Z,13.10
2023-04-13T15:18:09.159Z,13.10
2023-04-13T15:20:36.882Z,13.20
2023-04-13T15:23:04.575Z,13.10
2023-04-13T15:25:32.145Z,13.10
2023-04-13T15:28:00.078Z,13.20
2023-04-13T15:30:31.464Z,13.10
2023-04-13T15:33:04.458Z,12.80
2023-04-13T15:35:35.723Z,13.00
2023-04-13T15:38:03.417Z,13.00
2023-04-13T15:40:35.082Z,12.80
2023-04-13T15:43:04.339Z,12.70
2023-04-13T15:45:32.771Z,12.60
2023-04-13T15:48:01.273Z,12.40
2023-04-13T15:50:28.717Z,12.40
2023-04-13T15:52:57.198Z,12.50
2023-04-13T15:55:24.943Z,12.60
2023-04-13T15:57:53.973Z,12.70
2023-04-13T16:00:21.771Z,12.60
2023-04-13T16:02:49.373Z,12.60
2023-04-13T16:05:18.374Z,12.70
2023-04-13T16:07:45.859Z,12.70
2023-04-13T16:10:17.556Z,12.60
2023-04-13T16:12:45.570Z,12.80
2023-04-13T16:15:13.842Z,12.70
2023-04-13T16:17:43.993Z,12.70
2023-04-13T16:20:14.897Z,12.60
2023-04-13T16:22:48.537Z,12.70
2023-04-13T16:25:19.650Z,12.70
2023-04-13T16:27:50.722Z,12.70
2023-04-13T16:30:21.222Z,12.70
2023-04-13T16:32:50.048Z,12.90
2023-04-13T16:35:17.820Z,12.90
2023-04-13T16:37:45.368Z,12.90
2023-04-13T16:40:13.537Z,12.90
2023-04-13T16:42:42.413Z,12.90
2023-04-13T16:45:13.965Z,12.90
2023-04-13T16:47:42.448Z,12.80
2023-04-13T16:50:12.559Z,12.80
2023-04-13T16:52:40.720Z,12.80
2023-04-13T16:55:14.190Z,12.70
2023-04-13T16:57:43.419Z,12.80
2023-04-13T17:00:12.645Z,12.80
2023-04-13T17:02:43.191Z,12.80
2023-04-13T17:05:12.784Z,12.90
2023-04-13T17:07:43.906Z,12.60
2023-04-13T17:10:14.492Z,12.60
2023-04-13T17:12:42.060Z,12.70
2023-04-13T17:15:10.738Z,12.80
2023-04-13T17:17:38.639Z,12.80
2023-04-13T17:20:08.491Z,12.80
2023-04-13T17:22:36.207Z,12.70
2023-04-13T17:25:04.486Z,12.80
2023-04-13T17:27:31.904Z,12.80
2023-04-13T17:29:59.389Z,12.80
2023-04-13T17:32:27.483Z,12.90
2023-04-13T17:34:57.077Z,12.90
2023-04-13T17:37:24.679Z,12.90
2023-04-13T17:39:52.185Z,12.80
2023-04-13T17:42:19.661Z,12.90
2023-04-13T17:44:47.316Z,12.90
2023-04-13T17:47:14.961Z,13.10
2023-04-13T17:49:42.836Z,13.10
2023-04-13T17:52:10.349Z,13.00
2023-04-13T17:54:39.463Z,13.00
2023-04-13T17:57:07.793Z,12.90
2023-04-13T17:59:35.530Z,12.70
2023-04-13T18:02:03.058Z,12.60
2023-04-13T18:04:32.438Z,12.50
2023-04-13T18:07:00.252Z,12.50
2023-04-13T18:09:28.245Z,12.40
2023-04-13T18:11:55.782Z,12.30
2023-04-13T18:14:23.223Z,12.20
2023-04-13T18:16:50.884Z,12.20
2023-04-13T18:19:18.317Z,12.10
2023-04-13T18:21:45.858Z,12.00
2023-04-13T18:24:13.350Z,11.80
2023-04-13T18:26:41.646Z,11.80
2023-04-13T18:29:09.692Z,11.70
2023-04-13T18:31:37.230Z,11.70
2023-04-13T18:34:07.252Z,11.70
2023-04-13T18:36:34.768Z,11.60
2023-04-13T18:39:03.736Z,11.60
2023-04-13T18:41:32.033Z,11.50
2023-04-13T18:43:59.844Z,11.50
2023-04-13T18:46:27.884Z,11.40
2023-04-13T18:48:55.448Z,11.40
2023-04-13T18:51:22.942Z,11.40
2023-04-13T18:53:50.431Z,11.30
2023-04-13T18:56:17.892Z,11.30
2023-04-13T18:58:45.499Z,11.30
2023-04-13T19:01:20.513Z,11.20
2023-04-13T19:03:49.934Z,11.10
2023-04-13T19:06:18.767Z,11.10
2023-04-13T19:08:46.290Z,11.00
2023-04-13T19:11:16.183Z,11.00
2023-04-13T19:13:45.055Z,11.00
2023-04-13T19:16:13.999Z,10.90
2023-04-13T19:18:41.497Z,10.80
2023-04-13T19:21:09.082Z,10.80
2023-04-13T19:23:38.900Z,10.80
2023-04-13T19:26:08.553Z,10.70
2023-04-13T19:28:36.538Z,10.60
2023-04-13T19:31:04.035Z,10.50
2023-04-13T19:33:33.543Z,10.50
2023-04-13T19:36:01.278Z,10.50
2023-04-13T19:38:28.752Z,10.40
2023-04-13T19:40:57.829Z,10.30
2023-04-13T19:43:28.150Z,10.30
2023-04-13T19:45:56.349Z,10.40
2023-04-13T19:48:24.044Z,10.20
2023-04-13T19:50:51.514Z,10.30
2023-04-13T19:53:19.050Z,10.20
2023-04-13T19:55:46.718Z,10.10
2023-04-13T19:58:14.210Z,10.10
2023-04-13T20:00:42.331Z,10.10
2023-04-13T20:03:09.924Z,10.10
2023-04-13T20:05:38.381Z,10.00
2023-04-13T20:08:06.297Z,10.00
2023-04-13T20:10:33.849Z,9.90
2023-04-13T20:13:01.379Z,9.90
2023-04-13T20:15:32.984Z,9.90
2023-04-13T20:18:03.418Z,9.80
2023-04-13T20:20:32.458Z,9.80
2023-04-13T20:23:00.552Z,9.90
2023-04-13T20:25:28.225Z,9.90
2023-04-13T20:27:55.851Z,9.80
2023-04-13T20:30:23.602Z,9.80
2023-04-13T20:32:51.136Z,9.90
2023-04-13T20:35:18.950Z,9.80
2023-04-13T20:37:46.544Z,9.80
2023-04-13T20:40:14.167Z,9.70
2023-04-13T20:42:42.342Z,9.70
2023-04-13T20:45:14.677Z,9.70
2023-04-13T20:47:45.024Z,9.70
2023-04-13T20:50:18.849Z,9.70
2023-04-13T20:52:47.028Z,9.60
2023-04-13T20:55:14.687Z,9.60
2023-04-13T20:57:42.472Z,9.50
2023-04-13T21:00:16.508Z,9.50
2023-04-13T21:02:45.268Z,9.50
2023-04-13T21:05:13.820Z,9.50
2023-04-13T21:07:41.981Z,9.40
2023-04-13T21:10:11.318Z,9.40
2023-04-13T21:12:38.754Z,9.40
2023-04-13T21:15:07.376Z,9.30
2023-04-13T21:17:35.000Z,9.40
2023-04-13T21:20:02.495Z,9.40
2023-04-13T21:22:30.519Z,9.20
2023-04-13T21:24:57.961Z,9.30
2023-04-13T21:27:25.519Z,9.30
2023-04-13T21:29:53.003Z,9.20
2023-04-13T21:32:21.321Z,9.10
2023-04-13T21:34:48.850Z,9.10
2023-04-13T21:37:16.313Z,9.00
2023-04-13T21:39:43.737Z,9.00
2023-04-13T21:42:11.183Z,8.90
2023-04-13T21:44:38.665Z,8.90
2023-04-13T21:47:07.095Z,8.90
2023-04-13T21:49:34.575Z,8.90
2023-04-13T21:52:02.080Z,8.90
2023-04-13T21:54:29.507Z,8.90
2023-04-13T21:56:56.989Z,8.90
2023-04-13T21:59:27.391Z,8.90
2023-04-13T22:01:55.696Z,8.90
2023-04-13T22:04:23.594Z,8.90
2023-04-13T22:06:51.209Z,9.00
2023-04-13T22:09:18.989Z,8.90
2023-04-13T22:11:46.530Z,8.90
2023-04-13T22:14:13.994Z,8.90
2023-04-13T22:16:41.497Z,8.90
2023-04-13T22:19:09.646Z,8.80
2023-04-13T22:21:37.986Z,8.80
2023-04-13T22:24:05.960Z,8.80
2023-04-13T22:26:33.484Z,8.80
2023-04-13T22:29:01.180Z,8.80
2023-04-13T22:31:28.931Z,8.80
2023-04-13T22:33:57.411Z,8.90
2023-04-13T22:36:24.945Z,8.70
2023-04-13T22:38:52.851Z,8.80
2023-04-13T22:41:20.841Z,8.80
2023-04-13T22:43:48.296Z,8.70
